This is the latest recevied weather packets stored in our database for station/object WA1NHP. If no packets are shown the sender has not sent any weather packets the latest 10 day(s).
| Time | Temp. | Humidity | Pressure | Rain* | Wind** | Luminosity | Snow |
|---|---|---|---|---|---|---|---|
| 1778028243 | 16.67° C | 81% | 1023.9 hPa | 0 mm | - | 0 W/m² | - |
| 1778027644 | 16.67° C | 83% | 1023.9 hPa | 0 mm | - | 0 W/m² | - |
| 1778027044 | 16.67° C | 83% | 1023.9 hPa | 0 mm | - | 0 W/m² | - |
| 1778026444 | 17.22° C | 81% | 1023.9 hPa | 0 mm | - | 0 W/m² | - |
| 1778025844 | 17.78° C | 76% | 1023.9 hPa | 0 mm | - | 0 W/m² | - |
| 1778025244 | 19.44° C | 68% | 1023.9 hPa | 0 mm | - | 0 W/m² | - |
| 1778024644 | 21.11° C | 57% | 1023.9 hPa | 0 mm | - | 0 W/m² | - |
| 1778024044 | 21.11° C | 53% | 1023.9 hPa | 0 mm | - | 0 W/m² | - |
| 1778023444 | 21.67° C | 53% | 1023.9 hPa | 0 mm | - | 0 W/m² | - |
| 1778022845 | 21.67° C | 52% | 1023.9 hPa | 0 mm | - | 5 W/m² | - |
| 1778022244 | 22.22° C | 52% | 1023.9 hPa | 0 mm | - | 28 W/m² | - |
| 1778021644 | 22.22° C | 51% | 1023.9 hPa | 0 mm | - | 76 W/m² | - |
| 1778021044 | 22.22° C | 51% | 1023.9 hPa | 0 mm | - | 62 W/m² | - |
| 1778020443 | 22.78° C | 51% | 1023.9 hPa | 0 mm | - | 56 W/m² | - |
| 1778019844 | 22.78° C | 50% | 1023.9 hPa | 0 mm | - | 79 W/m² | - |
| 1778019245 | 23.33° C | 50% | 1023.9 hPa | 0 mm | - | 104 W/m² | - |
| 1778018643 | 23.33° C | 49% | 1023.9 hPa | 0 mm | - | 105 W/m² | - |
| 1778018044 | 23.89° C | 48% | 1023.9 hPa | 0 mm | - | 105 W/m² | - |
| 1778017444 | 23.89° C | 48% | 1023.9 hPa | 0 mm | - | 130 W/m² | - |
| 1778016844 | 24.44° C | 47% | 1023.9 hPa | 0 mm | - | 104 W/m² | - |
| 1778016244 | 24.44° C | 47% | 1023.9 hPa | 0 mm | - | 148 W/m² | - |
| 1778015643 | 25° C | 46% | 1023.9 hPa | 0 mm | - | 250 W/m² | - |
| 1778015044 | 24.44° C | 46% | 1023.9 hPa | 0 mm | - | 230 W/m² | - |
| 1778014444 | 24.44° C | 45% | 1023.9 hPa | 0 mm | - | 160 W/m² | - |
| 1778013843 | 25° C | 45% | 1023.9 hPa | 0 mm | - | 160 W/m² | - |
* Rain latest hour (hover to see other rain measurements)
** Current wind speed in m/s (hover to see current wind gust speed)